createdAt,value
2023-01-05T00:01:14.263Z,8.40
2023-01-05T00:04:27.970Z,8.30
2023-01-05T00:07:03.989Z,8.30
2023-01-05T00:13:33.596Z,8.20
2023-01-05T00:16:41.186Z,8.20
2023-01-05T00:19:51.431Z,8.10
2023-01-05T00:22:41.346Z,8.10
2023-01-05T00:26:23.412Z,8.10
2023-01-05T00:29:08.816Z,8.10
2023-01-05T00:31:47.826Z,8.10
2023-01-05T00:34:55.996Z,8.10
2023-01-05T00:37:42.578Z,8.10
2023-01-05T00:43:47.352Z,8.10
2023-01-05T00:46:36.071Z,8.10
2023-01-05T00:49:15.298Z,8.10
2023-01-05T00:55:23.221Z,8.10
2023-01-05T00:58:05.020Z,8.00
2023-01-05T01:00:56.297Z,8.00
2023-01-05T01:04:03.735Z,8.00
2023-01-05T01:28:56.169Z,8.00
2023-01-05T01:35:25.625Z,7.90
2023-01-05T01:38:16.597Z,7.90
2023-01-05T01:45:01.417Z,7.80
2023-01-05T02:03:09.869Z,7.90
2023-01-05T02:32:40.209Z,7.90
2023-01-05T02:49:20.425Z,7.80
2023-01-05T02:56:15.292Z,7.70
2023-01-05T02:59:38.422Z,7.80
2023-01-05T03:02:46.045Z,7.80
2023-01-05T03:09:50.585Z,7.90
2023-01-05T03:13:03.948Z,7.80
2023-01-05T03:16:11.658Z,7.90
2023-01-05T03:19:10.771Z,7.90
2023-01-05T03:22:39.243Z,7.90
2023-01-05T03:26:02.848Z,7.90
2023-01-05T03:29:25.935Z,7.90
2023-01-05T03:32:19.509Z,7.90
2023-01-05T03:35:10.422Z,7.90
2023-01-05T03:37:55.817Z,7.90
2023-01-05T03:40:32.080Z,7.90
2023-01-05T03:42:59.311Z,7.90
2023-01-05T03:45:32.609Z,7.90
2023-01-05T03:47:59.379Z,7.90
2023-01-05T03:50:26.206Z,7.90
2023-01-05T03:52:53.046Z,7.90
2023-01-05T03:55:19.931Z,7.90
2023-01-05T03:57:46.721Z,7.90
2023-01-05T04:00:14.368Z,7.90
2023-01-05T04:02:41.304Z,7.90
2023-01-05T04:05:08.696Z,7.90
2023-01-05T04:07:35.611Z,7.90
2023-01-05T04:10:02.474Z,7.90
2023-01-05T04:12:29.304Z,7.90
2023-01-05T04:14:56.069Z,7.90
2023-01-05T04:17:22.837Z,7.90
2023-01-05T04:19:49.762Z,7.90
2023-01-05T04:22:18.101Z,7.90
2023-01-05T04:24:46.717Z,8.00
2023-01-05T04:27:13.498Z,8.00
2023-01-05T04:29:40.346Z,8.00
2023-01-05T04:32:07.228Z,8.00
2023-01-05T04:34:34.790Z,7.90
2023-01-05T04:37:01.563Z,7.90
2023-01-05T04:39:28.336Z,7.90
2023-01-05T04:41:55.505Z,7.90
2023-01-05T04:44:22.321Z,7.80
2023-01-05T04:46:49.291Z,7.80
2023-01-05T04:49:16.341Z,7.80
2023-01-05T04:51:43.354Z,7.80
2023-01-05T04:54:10.233Z,7.80
2023-01-05T04:56:37.052Z,7.80
2023-01-05T04:59:04.872Z,7.80
2023-01-05T05:01:31.742Z,7.80
2023-01-05T05:03:58.707Z,7.80
2023-01-05T05:06:25.645Z,7.80
2023-01-05T05:08:52.485Z,7.80
2023-01-05T05:11:19.367Z,7.80
2023-01-05T05:13:46.203Z,7.80
2023-01-05T05:16:13.059Z,7.80
2023-01-05T05:18:39.887Z,7.80
2023-01-05T05:21:06.747Z,7.80
2023-01-05T05:23:33.645Z,7.80
2023-01-05T05:26:00.497Z,7.80
2023-01-05T05:28:30.114Z,7.80
2023-01-05T05:30:57.234Z,7.80
2023-01-05T05:33:24.919Z,7.70
2023-01-05T05:35:51.937Z,7.70
2023-01-05T05:38:18.901Z,7.60
2023-01-05T05:40:47.928Z,7.60
2023-01-05T05:43:15.001Z,7.60
2023-01-05T05:45:49.602Z,7.60
2023-01-05T05:48:17.242Z,7.60
2023-01-05T05:50:45.013Z,7.60
2023-01-05T05:53:11.814Z,7.60
2023-01-05T05:55:38.661Z,7.70
2023-01-05T05:58:05.782Z,7.70
2023-01-05T06:00:32.720Z,7.80
2023-01-05T06:02:59.654Z,7.80
2023-01-05T06:05:27.273Z,7.90
2023-01-05T06:07:54.106Z,7.90
2023-01-05T06:10:21.005Z,7.90
2023-01-05T06:12:47.975Z,7.90
2023-01-05T06:15:14.926Z,7.90
2023-01-05T06:17:42.531Z,8.00
2023-01-05T06:20:09.914Z,8.00
2023-01-05T06:22:37.142Z,8.00
2023-01-05T06:25:05.078Z,8.00
2023-01-05T06:27:32.447Z,8.00
2023-01-05T06:29:59.219Z,8.00
2023-01-05T06:32:26.105Z,8.00
2023-01-05T06:34:52.879Z,7.90
2023-01-05T06:37:19.675Z,7.80
2023-01-05T06:39:46.449Z,7.80
2023-01-05T06:42:13.245Z,7.70
2023-01-05T06:44:40.013Z,7.70
2023-01-05T06:47:06.831Z,7.60
2023-01-05T06:49:33.622Z,7.70
2023-01-05T06:52:00.406Z,7.60
2023-01-05T06:54:27.293Z,7.60
2023-01-05T06:56:54.153Z,7.60
2023-01-05T06:59:20.965Z,7.50
2023-01-05T07:01:47.913Z,7.50
2023-01-05T07:04:14.898Z,7.40
2023-01-05T07:06:42.103Z,7.30
2023-01-05T07:09:08.904Z,7.20
2023-01-05T07:11:35.736Z,7.20
2023-01-05T07:14:02.592Z,7.10
2023-01-05T07:16:29.461Z,7.00
2023-01-05T07:18:56.267Z,6.80
2023-01-05T07:21:23.217Z,6.70
2023-01-05T07:23:50.003Z,6.60
2023-01-05T07:26:16.759Z,6.50
2023-01-05T07:28:43.538Z,6.40
2023-01-05T07:31:10.424Z,6.40
2023-01-05T07:33:39.973Z,6.30
2023-01-05T07:36:07.785Z,6.10
2023-01-05T07:38:34.718Z,6.10
2023-01-05T07:41:01.878Z,6.00
2023-01-05T07:43:28.913Z,5.90
2023-01-05T07:45:59.982Z,5.80
2023-01-05T07:48:26.899Z,5.70
2023-01-05T07:51:01.657Z,5.60
2023-01-05T07:53:30.131Z,5.50
2023-01-05T07:55:58.744Z,5.50
2023-01-05T07:58:25.790Z,5.50
2023-01-05T08:00:52.590Z,5.40
2023-01-05T08:03:19.947Z,5.40
2023-01-05T08:05:47.371Z,5.40
2023-01-05T08:08:20.518Z,5.40
2023-01-05T08:10:49.317Z,5.30
2023-01-05T08:13:34.587Z,5.30
2023-01-05T08:16:01.941Z,5.20
2023-01-05T08:18:28.937Z,5.20
2023-01-05T08:21:00.901Z,5.20
2023-01-05T08:23:28.553Z,5.10
2023-01-05T08:25:55.628Z,5.10
2023-01-05T08:28:31.412Z,5.10
2023-01-05T08:31:03.620Z,5.10
2023-01-05T08:33:30.429Z,5.10
2023-01-05T08:35:57.243Z,5.00
2023-01-05T08:38:24.342Z,5.00
2023-01-05T08:40:52.287Z,4.90
2023-01-05T08:43:19.119Z,4.90
2023-01-05T08:45:50.594Z,4.80
2023-01-05T08:48:17.646Z,4.80
2023-01-05T08:50:44.727Z,4.70
2023-01-05T08:53:11.972Z,4.70
2023-01-05T08:55:38.771Z,4.70
2023-01-05T08:58:08.568Z,4.70
2023-01-05T09:00:35.950Z,4.70
2023-01-05T09:03:03.220Z,4.70
2023-01-05T09:05:30.833Z,4.70
2023-01-05T09:07:57.671Z,4.70
2023-01-05T09:10:24.439Z,4.80
2023-01-05T09:12:51.271Z,4.80
2023-01-05T09:15:18.072Z,4.80
2023-01-05T09:17:45.318Z,4.90
2023-01-05T09:20:12.298Z,4.90
2023-01-05T09:22:39.413Z,4.90
2023-01-05T09:25:06.413Z,4.90
2023-01-05T09:27:33.230Z,4.90
2023-01-05T09:30:00.052Z,5.00
2023-01-05T09:32:26.960Z,5.00
2023-01-05T09:34:54.083Z,5.00
2023-01-05T09:37:21.369Z,5.00
2023-01-05T09:39:48.308Z,5.00
2023-01-05T09:42:17.952Z,5.00
2023-01-05T09:44:58.858Z,5.10
2023-01-05T09:47:41.693Z,5.10
2023-01-05T09:50:23.775Z,5.20
2023-01-05T09:52:53.244Z,5.20
2023-01-05T09:55:23.255Z,5.20
2023-01-05T09:57:56.521Z,5.20
2023-01-05T10:00:24.184Z,5.20
2023-01-05T10:02:59.159Z,5.20
2023-01-05T10:05:28.033Z,5.20
2023-01-05T10:08:08.453Z,5.30
2023-01-05T10:11:28.114Z,5.30
2023-01-05T10:14:17.679Z,5.20
2023-01-05T10:16:45.613Z,5.30
2023-01-05T10:19:18.373Z,5.30
2023-01-05T10:22:16.324Z,5.30
2023-01-05T10:25:10.161Z,5.30
2023-01-05T10:27:45.670Z,5.40
2023-01-05T10:30:51.217Z,5.40
2023-01-05T10:33:35.736Z,5.40
2023-01-05T10:36:41.286Z,5.40
2023-01-05T10:39:34.360Z,5.50
2023-01-05T10:42:14.139Z,5.50
2023-01-05T10:44:55.684Z,5.60
2023-01-05T10:47:25.289Z,5.60
2023-01-05T10:49:53.416Z,5.60
2023-01-05T10:52:22.974Z,5.60
2023-01-05T10:55:01.695Z,5.60
2023-01-05T10:57:34.090Z,5.70
2023-01-05T11:00:07.607Z,5.70
2023-01-05T11:02:40.101Z,5.80
2023-01-05T11:05:10.034Z,5.80
2023-01-05T11:07:56.982Z,5.90
2023-01-05T11:10:35.207Z,5.90
2023-01-05T11:13:07.488Z,6.00
2023-01-05T11:15:42.042Z,6.00
2023-01-05T11:18:36.114Z,6.10
2023-01-05T11:21:08.565Z,6.20
2023-01-05T11:23:55.526Z,6.30
2023-01-05T11:26:25.696Z,6.30
2023-01-05T11:29:01.810Z,6.40
2023-01-05T11:31:34.523Z,6.40
2023-01-05T11:34:07.464Z,6.40
2023-01-05T11:36:34.661Z,6.40
2023-01-05T11:39:01.646Z,6.40
2023-01-05T11:41:28.526Z,6.30
2023-01-05T11:44:00.329Z,6.30
2023-01-05T11:46:39.124Z,6.30
2023-01-05T11:49:06.006Z,6.20
2023-01-05T11:51:35.246Z,6.30
2023-01-05T11:54:02.083Z,6.30
2023-01-05T11:56:28.980Z,6.30
2023-01-05T11:58:59.702Z,6.30
2023-01-05T12:01:41.847Z,6.30
2023-01-05T12:04:22.685Z,6.20
2023-01-05T12:06:52.531Z,6.20
2023-01-05T12:09:26.420Z,6.30
2023-01-05T12:11:55.319Z,6.30
2023-01-05T12:14:33.498Z,6.30
2023-01-05T12:17:05.016Z,6.30
2023-01-05T12:19:46.648Z,6.30
2023-01-05T12:22:13.414Z,6.30
2023-01-05T12:25:01.823Z,6.30
2023-01-05T12:27:41.298Z,6.30
2023-01-05T12:34:01.719Z,6.20
2023-01-05T12:36:30.586Z,6.20
2023-01-05T12:39:12.613Z,6.20
2023-01-05T12:42:01.168Z,6.20
2023-01-05T12:44:55.830Z,6.20
2023-01-05T12:47:25.577Z,6.20
2023-01-05T12:50:00.657Z,6.20
2023-01-05T12:52:32.879Z,6.20
2023-01-05T12:55:08.716Z,6.30
2023-01-05T12:57:41.075Z,6.30
2023-01-05T13:00:28.767Z,6.30
2023-01-05T13:02:59.744Z,6.30
2023-01-05T13:05:32.824Z,6.20
2023-01-05T13:08:08.704Z,6.20
2023-01-05T13:10:52.537Z,6.20
2023-01-05T13:13:37.459Z,6.20
2023-01-05T13:16:27.253Z,6.20
2023-01-05T13:19:02.000Z,6.10
2023-01-05T13:21:29.060Z,6.10
2023-01-05T13:24:00.890Z,6.00
2023-01-05T13:26:30.362Z,6.00
2023-01-05T13:29:03.897Z,5.90
2023-01-05T13:31:46.431Z,5.90
2023-01-05T13:34:19.323Z,5.80
2023-01-05T13:37:21.260Z,5.80
2023-01-05T13:40:02.078Z,5.70
2023-01-05T13:42:54.270Z,5.70
2023-01-05T13:45:43.121Z,5.70
2023-01-05T13:49:03.282Z,5.70
2023-01-05T13:51:48.839Z,5.60
2023-01-05T13:54:49.103Z,5.70
2023-01-05T13:57:23.958Z,5.60
2023-01-05T14:00:17.071Z,5.60
2023-01-05T14:02:45.344Z,5.60
2023-01-05T14:05:30.391Z,5.60
2023-01-05T14:07:58.808Z,5.50
2023-01-05T14:10:28.976Z,5.50
2023-01-05T14:12:56.089Z,5.60
2023-01-05T14:15:38.081Z,5.60
2023-01-05T14:18:24.076Z,5.60
2023-01-05T14:20:53.777Z,5.60
2023-01-05T14:23:23.168Z,5.60
2023-01-05T14:25:57.387Z,5.60
2023-01-05T14:28:30.267Z,5.60
2023-01-05T14:31:11.277Z,5.60
2023-01-05T14:34:03.595Z,5.50
2023-01-05T14:36:37.673Z,5.40
2023-01-05T14:39:21.615Z,5.30
2023-01-05T14:41:59.462Z,5.30
2023-01-05T14:44:34.437Z,5.20
2023-01-05T14:47:01.870Z,5.20
2023-01-05T14:49:36.771Z,5.20
2023-01-05T14:52:18.058Z,5.20
2023-01-05T14:54:45.478Z,5.20
2023-01-05T14:57:24.535Z,5.20
2023-01-05T15:00:15.003Z,5.10
2023-01-05T15:02:58.197Z,5.10
2023-01-05T15:05:25.457Z,5.10
2023-01-05T15:07:55.887Z,5.00
2023-01-05T15:10:41.516Z,5.00
2023-01-05T15:13:25.248Z,5.00
2023-01-05T15:16:15.784Z,5.00
2023-01-05T15:19:03.856Z,5.00
2023-01-05T15:21:45.239Z,5.00
2023-01-05T15:24:38.925Z,5.00
2023-01-05T15:27:15.141Z,5.00
2023-01-05T15:30:00.154Z,5.00
2023-01-05T15:32:36.211Z,5.00
2023-01-05T15:35:12.293Z,5.00
2023-01-05T15:37:40.644Z,5.00
2023-01-05T15:40:26.709Z,5.00
2023-01-05T15:42:56.470Z,5.00
2023-01-05T15:45:31.577Z,5.00
2023-01-05T15:48:09.384Z,5.10
2023-01-05T15:51:00.385Z,5.10
2023-01-05T15:53:44.248Z,5.10
2023-01-05T15:56:30.792Z,5.10
2023-01-05T15:58:59.627Z,5.10
2023-01-05T16:01:28.352Z,5.10
2023-01-05T16:04:09.430Z,5.10
2023-01-05T16:06:39.511Z,5.10
2023-01-05T16:09:34.519Z,5.10
2023-01-05T16:12:08.919Z,5.10
2023-01-05T16:14:40.918Z,5.10
2023-01-05T16:17:17.380Z,5.10
2023-01-05T16:20:08.037Z,5.10
2023-01-05T16:22:37.364Z,5.00
2023-01-05T16:25:26.384Z,5.00
2023-01-05T16:27:58.737Z,4.90
2023-01-05T16:30:34.816Z,4.90
2023-01-05T16:33:11.711Z,4.80
2023-01-05T16:36:17.580Z,4.70
2023-01-05T16:38:44.439Z,4.60
2023-01-05T16:41:15.071Z,4.50
2023-01-05T16:43:44.843Z,4.30
2023-01-05T16:46:20.335Z,4.20
2023-01-05T16:48:53.320Z,4.10
2023-01-05T16:51:22.575Z,4.00
2023-01-05T16:53:57.876Z,3.90
2023-01-05T16:56:33.898Z,3.80
2023-01-05T16:59:02.369Z,3.70
2023-01-05T17:01:41.290Z,3.60
2023-01-05T17:04:12.972Z,3.60
2023-01-05T17:06:40.842Z,3.50
2023-01-05T17:09:23.269Z,3.50
2023-01-05T17:11:50.365Z,3.50
2023-01-05T17:14:17.828Z,3.40
2023-01-05T17:16:44.936Z,3.30
2023-01-05T17:19:17.754Z,3.20
2023-01-05T17:21:57.828Z,3.20
2023-01-05T17:24:25.998Z,3.20
2023-01-05T17:26:52.852Z,3.20
2023-01-05T17:29:22.235Z,3.30
2023-01-05T17:31:49.523Z,3.30
2023-01-05T17:34:16.609Z,3.30
2023-01-05T17:36:43.969Z,3.40
2023-01-05T17:39:14.865Z,3.40
2023-01-05T17:41:41.941Z,3.50
2023-01-05T17:44:08.900Z,3.50
2023-01-05T17:46:40.435Z,3.50
2023-01-05T17:49:12.721Z,3.40
2023-01-05T17:51:39.503Z,3.40
2023-01-05T17:54:06.373Z,3.40
2023-01-05T17:58:59.915Z,3.30
2023-01-05T18:01:26.783Z,3.30
2023-01-05T18:03:53.577Z,3.30
2023-01-05T18:06:20.556Z,3.40
2023-01-05T18:08:47.331Z,3.40
2023-01-05T18:11:14.838Z,3.40
2023-01-05T18:16:11.538Z,3.50
2023-01-05T18:18:38.478Z,3.50
2023-01-05T18:21:05.755Z,3.50
2023-01-05T18:23:32.651Z,3.60
2023-01-05T18:26:07.277Z,3.60
2023-01-05T18:28:34.590Z,3.70
2023-01-05T18:31:01.493Z,3.60
2023-01-05T18:33:28.441Z,3.70
2023-01-05T18:38:22.023Z,3.70
2023-01-05T18:40:50.046Z,3.80
2023-01-05T18:43:17.309Z,3.80
2023-01-05T18:45:44.190Z,3.80
2023-01-05T18:48:11.252Z,3.90
2023-01-05T18:50:43.185Z,3.90
2023-01-05T18:53:10.058Z,3.90
2023-01-05T18:55:40.494Z,3.90
2023-01-05T18:58:07.606Z,3.90
2023-01-05T19:00:34.419Z,3.90
2023-01-05T19:03:02.119Z,3.90
2023-01-05T19:05:28.978Z,3.90
2023-01-05T19:07:55.751Z,3.90
2023-01-05T19:10:22.651Z,3.90
2023-01-05T19:12:49.812Z,3.90
2023-01-05T19:15:16.630Z,3.90
2023-01-05T19:17:43.402Z,3.90
2023-01-05T19:20:10.499Z,3.90
2023-01-05T19:22:37.738Z,4.00
2023-01-05T19:25:05.783Z,4.00
2023-01-05T19:27:32.587Z,4.00
2023-01-05T19:29:59.339Z,4.00
2023-01-05T19:32:26.157Z,4.00
2023-01-05T19:34:52.948Z,4.00
2023-01-05T19:37:19.817Z,4.00
2023-01-05T19:39:46.657Z,4.00
2023-01-05T19:42:13.421Z,4.00
2023-01-05T19:44:40.233Z,4.00
2023-01-05T19:47:07.065Z,4.00
2023-01-05T19:49:34.429Z,3.90
2023-01-05T19:52:01.225Z,3.90
2023-01-05T19:54:28.692Z,3.90
2023-01-05T19:56:55.515Z,3.90
2023-01-05T19:59:26.196Z,3.80
2023-01-05T20:01:54.860Z,3.80
2023-01-05T20:04:21.722Z,3.70
2023-01-05T20:06:48.586Z,3.60
2023-01-05T20:09:18.863Z,3.50
2023-01-05T20:11:48.891Z,3.40
2023-01-05T20:14:17.217Z,3.40
2023-01-05T20:16:47.486Z,3.30
2023-01-05T20:19:15.393Z,3.20
2023-01-05T20:21:42.722Z,3.20
2023-01-05T20:24:18.407Z,3.10
2023-01-05T20:26:46.952Z,3.00
2023-01-05T20:29:15.859Z,3.00
2023-01-05T20:31:46.381Z,3.00
2023-01-05T20:34:17.623Z,2.90
2023-01-05T20:36:44.867Z,2.90
2023-01-05T20:39:13.884Z,2.90
2023-01-05T20:41:42.933Z,2.90
2023-01-05T20:44:10.406Z,2.80
2023-01-05T20:46:40.527Z,2.80
2023-01-05T20:49:07.322Z,2.80
2023-01-05T20:51:34.714Z,2.80
2023-01-05T20:54:02.558Z,2.70
2023-01-05T20:56:38.484Z,2.70
2023-01-05T20:59:14.844Z,2.80
2023-01-05T21:01:42.047Z,2.80
2023-01-05T21:04:08.862Z,2.80
2023-01-05T21:06:35.720Z,2.90
2023-01-05T21:09:04.363Z,2.90
2023-01-05T21:11:38.602Z,3.00
2023-01-05T21:14:07.890Z,3.00
2023-01-05T21:16:46.866Z,3.00
2023-01-05T21:19:18.431Z,3.10
2023-01-05T21:21:46.059Z,3.10
2023-01-05T21:24:14.100Z,3.10
2023-01-05T21:26:43.929Z,3.10
2023-01-05T21:29:13.857Z,3.20
2023-01-05T21:31:40.789Z,3.20
2023-01-05T21:34:08.090Z,3.20
2023-01-05T21:36:38.313Z,3.30
2023-01-05T21:39:09.977Z,3.30
2023-01-05T21:41:55.968Z,3.30
2023-01-05T21:44:23.395Z,3.40
2023-01-05T21:46:50.955Z,3.40
2023-01-05T21:49:18.608Z,3.40
2023-01-05T21:52:07.096Z,3.50
2023-01-05T21:54:52.494Z,3.50
2023-01-05T21:57:19.266Z,3.60
2023-01-05T21:59:46.112Z,3.60
2023-01-05T22:02:14.091Z,3.60
2023-01-05T22:04:40.969Z,3.70
2023-01-05T22:07:08.071Z,3.70
2023-01-05T22:09:35.651Z,3.70
2023-01-05T22:12:03.917Z,3.80
2023-01-05T22:14:30.766Z,3.80
2023-01-05T22:16:57.586Z,3.80
2023-01-05T22:19:24.926Z,3.90
2023-01-05T22:21:51.769Z,3.90
2023-01-05T22:24:24.771Z,3.90
2023-01-05T22:26:54.231Z,4.00
2023-01-05T22:29:24.234Z,4.00
2023-01-05T22:35:44.249Z,4.10
2023-01-05T22:38:40.202Z,4.10
2023-01-05T22:41:08.462Z,4.10
2023-01-05T22:43:39.847Z,4.20
2023-01-05T22:46:12.417Z,4.20
2023-01-05T22:48:41.207Z,4.20
2023-01-05T22:51:13.959Z,4.20
2023-01-05T22:53:41.161Z,4.30
2023-01-05T22:56:10.361Z,4.30
2023-01-05T22:58:37.428Z,4.30
2023-01-05T23:01:12.054Z,4.30
2023-01-05T23:03:39.705Z,4.30
2023-01-05T23:06:07.107Z,4.40
2023-01-05T23:08:35.456Z,4.40
2023-01-05T23:11:04.296Z,4.40
2023-01-05T23:13:31.099Z,4.40
2023-01-05T23:15:58.233Z,4.40
2023-01-05T23:18:25.173Z,4.50
2023-01-05T23:20:57.549Z,4.50
2023-01-05T23:23:24.665Z,4.50
2023-01-05T23:25:52.261Z,4.50
2023-01-05T23:28:21.107Z,4.50
2023-01-05T23:30:49.985Z,4.50
2023-01-05T23:33:18.139Z,4.60
2023-01-05T23:35:46.904Z,4.60
2023-01-05T23:38:14.263Z,4.60
2023-01-05T23:40:48.161Z,4.60
2023-01-05T23:43:17.041Z,4.60
2023-01-05T23:45:44.208Z,4.60
2023-01-05T23:48:12.421Z,4.60
2023-01-05T23:50:43.756Z,4.70
2023-01-05T23:53:11.132Z,4.70
2023-01-05T23:55:38.714Z,4.60
2023-01-05T23:58:06.077Z,4.70
